sensor_id;sensor_type;location;lat;lon;timestamp;P1;durP1;ratioP1;P2;durP2;ratioP2
22490;SDS011;11412;50.802;4.350;2022-07-06T00:00:33;3.58;;;2.30;;
22490;SDS011;11412;50.802;4.350;2022-07-06T00:02:59;1.88;;;1.23;;
22490;SDS011;11412;50.802;4.350;2022-07-06T00:05:24;3.20;;;1.80;;
22490;SDS011;11412;50.802;4.350;2022-07-06T00:07:50;1.80;;;1.63;;
22490;SDS011;11412;50.802;4.350;2022-07-06T00:10:16;2.40;;;1.35;;
22490;SDS011;11412;50.802;4.350;2022-07-06T00:12:42;2.22;;;1.48;;
22490;SDS011;11412;50.802;4.350;2022-07-06T00:15:07;2.45;;;1.60;;
22490;SDS011;11412;50.802;4.350;2022-07-06T00:17:34;3.45;;;1.75;;
22490;SDS011;11412;50.802;4.350;2022-07-06T00:19:59;2.65;;;1.95;;
22490;SDS011;11412;50.802;4.350;2022-07-06T00:22:25;1.90;;;1.48;;
22490;SDS011;11412;50.802;4.350;2022-07-06T00:24:51;1.63;;;1.35;;
22490;SDS011;11412;50.802;4.350;2022-07-06T00:27:16;2.20;;;1.40;;
22490;SDS011;11412;50.802;4.350;2022-07-06T00:29:42;3.10;;;1.42;;
22490;SDS011;11412;50.802;4.350;2022-07-06T00:32:11;4.15;;;1.80;;
22490;SDS011;11412;50.802;4.350;2022-07-06T00:34:37;5.15;;;1.90;;
22490;SDS011;11412;50.802;4.350;2022-07-06T00:37:06;3.78;;;1.70;;
22490;SDS011;11412;50.802;4.350;2022-07-06T00:39:32;4.35;;;1.88;;
22490;SDS011;11412;50.802;4.350;2022-07-06T00:41:58;2.90;;;1.42;;
22490;SDS011;11412;50.802;4.350;2022-07-06T00:44:24;2.33;;;1.95;;
22490;SDS011;11412;50.802;4.350;2022-07-06T00:46:50;2.65;;;1.73;;
22490;SDS011;11412;50.802;4.350;2022-07-06T00:49:16;2.92;;;1.67;;
22490;SDS011;11412;50.802;4.350;2022-07-06T00:52:01;4.10;;;1.65;;
22490;SDS011;11412;50.802;4.350;2022-07-06T00:54:28;5.72;;;1.70;;
22490;SDS011;11412;50.802;4.350;2022-07-06T00:56:57;3.33;;;2.80;;
22490;SDS011;11412;50.802;4.350;2022-07-06T00:59:23;3.25;;;1.85;;
22490;SDS011;11412;50.802;4.350;2022-07-06T01:01:50;6.25;;;1.95;;
22490;SDS011;11412;50.802;4.350;2022-07-06T01:04:16;2.55;;;1.73;;
22490;SDS011;11412;50.802;4.350;2022-07-06T01:06:41;3.78;;;1.95;;
22490;SDS011;11412;50.802;4.350;2022-07-06T01:09:11;7.90;;;1.73;;
22490;SDS011;11412;50.802;4.350;2022-07-06T01:11:37;2.58;;;1.83;;
22490;SDS011;11412;50.802;4.350;2022-07-06T01:14:02;4.70;;;2.10;;
22490;SDS011;11412;50.802;4.350;2022-07-06T01:16:28;4.20;;;1.50;;
22490;SDS011;11412;50.802;4.350;2022-07-06T01:18:55;4.00;;;1.70;;
22490;SDS011;11412;50.802;4.350;2022-07-06T01:21:21;2.75;;;2.10;;
22490;SDS011;11412;50.802;4.350;2022-07-06T01:23:47;5.47;;;2.13;;
22490;SDS011;11412;50.802;4.350;2022-07-06T01:26:14;4.43;;;2.08;;
22490;SDS011;11412;50.802;4.350;2022-07-06T01:28:41;2.03;;;1.80;;
22490;SDS011;11412;50.802;4.350;2022-07-06T01:31:14;5.45;;;2.20;;
22490;SDS011;11412;50.802;4.350;2022-07-06T01:33:43;2.22;;;1.90;;
22490;SDS011;11412;50.802;4.350;2022-07-06T01:36:09;1.73;;;1.63;;
22490;SDS011;11412;50.802;4.350;2022-07-06T01:38:47;1.73;;;1.60;;
22490;SDS011;11412;50.802;4.350;2022-07-06T01:41:17;2.38;;;1.83;;
22490;SDS011;11412;50.802;4.350;2022-07-06T01:43:43;4.25;;;1.80;;
22490;SDS011;11412;50.802;4.350;2022-07-06T01:46:09;2.08;;;1.88;;
22490;SDS011;11412;50.802;4.350;2022-07-06T01:48:35;2.88;;;2.17;;
22490;SDS011;11412;50.802;4.350;2022-07-06T01:51:01;5.80;;;1.98;;
22490;SDS011;11412;50.802;4.350;2022-07-06T01:53:27;2.28;;;2.03;;
22490;SDS011;11412;50.802;4.350;2022-07-06T01:55:52;2.35;;;2.15;;
22490;SDS011;11412;50.802;4.350;2022-07-06T01:58:18;3.45;;;2.10;;
22490;SDS011;11412;50.802;4.350;2022-07-06T02:00:44;3.65;;;2.15;;
22490;SDS011;11412;50.802;4.350;2022-07-06T02:03:09;3.28;;;2.22;;
22490;SDS011;11412;50.802;4.350;2022-07-06T02:05:35;3.53;;;2.22;;
22490;SDS011;11412;50.802;4.350;2022-07-06T02:08:00;4.22;;;2.30;;
22490;SDS011;11412;50.802;4.350;2022-07-06T02:10:26;2.38;;;2.00;;
22490;SDS011;11412;50.802;4.350;2022-07-06T02:12:52;2.85;;;2.10;;
22490;SDS011;11412;50.802;4.350;2022-07-06T02:15:17;3.42;;;2.28;;
22490;SDS011;11412;50.802;4.350;2022-07-06T02:17:43;3.28;;;2.05;;
22490;SDS011;11412;50.802;4.350;2022-07-06T02:20:09;2.28;;;2.08;;
22490;SDS011;11412;50.802;4.350;2022-07-06T02:22:35;4.63;;;2.03;;
22490;SDS011;11412;50.802;4.350;2022-07-06T02:25:00;2.92;;;2.25;;
22490;SDS011;11412;50.802;4.350;2022-07-06T02:27:26;2.85;;;2.10;;
22490;SDS011;11412;50.802;4.350;2022-07-06T02:29:52;4.03;;;2.50;;
22490;SDS011;11412;50.802;4.350;2022-07-06T02:32:17;5.75;;;2.30;;
22490;SDS011;11412;50.802;4.350;2022-07-06T02:34:43;5.15;;;2.28;;
22490;SDS011;11412;50.802;4.350;2022-07-06T02:37:09;3.95;;;2.25;;
22490;SDS011;11412;50.802;4.350;2022-07-06T02:39:35;3.00;;;2.45;;
22490;SDS011;11412;50.802;4.350;2022-07-06T02:42:00;6.50;;;2.38;;
22490;SDS011;11412;50.802;4.350;2022-07-06T02:44:26;5.15;;;2.55;;
22490;SDS011;11412;50.802;4.350;2022-07-06T02:46:52;4.82;;;2.40;;
22490;SDS011;11412;50.802;4.350;2022-07-06T02:49:18;6.30;;;2.90;;
22490;SDS011;11412;50.802;4.350;2022-07-06T02:51:43;2.53;;;2.33;;
22490;SDS011;11412;50.802;4.350;2022-07-06T02:54:09;4.07;;;2.20;;
22490;SDS011;11412;50.802;4.350;2022-07-06T02:56:35;5.72;;;2.30;;
22490;SDS011;11412;50.802;4.350;2022-07-06T02:59:00;4.57;;;2.60;;
22490;SDS011;11412;50.802;4.350;2022-07-06T03:01:26;3.47;;;2.35;;
22490;SDS011;11412;50.802;4.350;2022-07-06T03:03:51;3.75;;;2.53;;
22490;SDS011;11412;50.802;4.350;2022-07-06T03:06:17;4.35;;;2.70;;
22490;SDS011;11412;50.802;4.350;2022-07-06T03:08:43;2.85;;;2.53;;
22490;SDS011;11412;50.802;4.350;2022-07-06T03:11:08;5.15;;;2.80;;
22490;SDS011;11412;50.802;4.350;2022-07-06T03:13:34;3.05;;;2.50;;
22490;SDS011;11412;50.802;4.350;2022-07-06T03:16:00;2.85;;;2.58;;
22490;SDS011;11412;50.802;4.350;2022-07-06T03:18:26;3.03;;;2.33;;
22490;SDS011;11412;50.802;4.350;2022-07-06T03:20:52;2.75;;;2.17;;
22490;SDS011;11412;50.802;4.350;2022-07-06T03:23:18;5.95;;;2.70;;
22490;SDS011;11412;50.802;4.350;2022-07-06T03:25:44;6.68;;;2.92;;
22490;SDS011;11412;50.802;4.350;2022-07-06T03:28:11;5.38;;;2.90;;
22490;SDS011;11412;50.802;4.350;2022-07-06T03:30:36;5.57;;;2.63;;
22490;SDS011;11412;50.802;4.350;2022-07-06T03:33:02;4.53;;;2.40;;
22490;SDS011;11412;50.802;4.350;2022-07-06T03:35:28;5.97;;;2.83;;
22490;SDS011;11412;50.802;4.350;2022-07-06T03:37:53;3.28;;;2.78;;
22490;SDS011;11412;50.802;4.350;2022-07-06T03:40:19;4.57;;;2.50;;
22490;SDS011;11412;50.802;4.350;2022-07-06T03:42:45;2.67;;;2.47;;
22490;SDS011;11412;50.802;4.350;2022-07-06T03:45:10;3.92;;;2.90;;
22490;SDS011;11412;50.802;4.350;2022-07-06T03:47:36;6.25;;;3.10;;
22490;SDS011;11412;50.802;4.350;2022-07-06T03:50:02;5.68;;;2.90;;
22490;SDS011;11412;50.802;4.350;2022-07-06T03:52:28;4.95;;;2.92;;
22490;SDS011;11412;50.802;4.350;2022-07-06T03:54:54;4.50;;;2.88;;
22490;SDS011;11412;50.802;4.350;2022-07-06T03:57:20;4.28;;;2.60;;
22490;SDS011;11412;50.802;4.350;2022-07-06T03:59:46;4.80;;;2.60;;
22490;SDS011;11412;50.802;4.350;2022-07-06T04:02:12;3.78;;;2.60;;
22490;SDS011;11412;50.802;4.350;2022-07-06T04:04:38;5.78;;;2.53;;
22490;SDS011;11412;50.802;4.350;2022-07-06T04:07:03;3.90;;;2.53;;
22490;SDS011;11412;50.802;4.350;2022-07-06T04:09:29;5.55;;;2.72;;
22490;SDS011;11412;50.802;4.350;2022-07-06T04:11:55;3.55;;;2.35;;
22490;SDS011;11412;50.802;4.350;2022-07-06T04:14:21;7.25;;;2.90;;
22490;SDS011;11412;50.802;4.350;2022-07-06T04:16:46;4.28;;;2.72;;
22490;SDS011;11412;50.802;4.350;2022-07-06T04:19:12;2.97;;;2.60;;
22490;SDS011;11412;50.802;4.350;2022-07-06T04:21:38;2.97;;;2.60;;
22490;SDS011;11412;50.802;4.350;2022-07-06T04:24:03;3.03;;;2.20;;
22490;SDS011;11412;50.802;4.350;2022-07-06T04:26:29;2.92;;;2.67;;
22490;SDS011;11412;50.802;4.350;2022-07-06T04:28:55;3.28;;;2.30;;
22490;SDS011;11412;50.802;4.350;2022-07-06T04:31:21;2.83;;;2.63;;
22490;SDS011;11412;50.802;4.350;2022-07-06T04:33:47;7.35;;;2.95;;
22490;SDS011;11412;50.802;4.350;2022-07-06T04:36:12;3.33;;;2.65;;
22490;SDS011;11412;50.802;4.350;2022-07-06T04:38:38;5.35;;;2.88;;
22490;SDS011;11412;50.802;4.350;2022-07-06T04:41:03;4.03;;;3.03;;
22490;SDS011;11412;50.802;4.350;2022-07-06T04:43:29;7.32;;;3.10;;
22490;SDS011;11412;50.802;4.350;2022-07-06T04:45:55;3.85;;;3.03;;
22490;SDS011;11412;50.802;4.350;2022-07-06T04:48:21;4.43;;;2.90;;
22490;SDS011;11412;50.802;4.350;2022-07-06T04:50:46;4.70;;;2.90;;
22490;SDS011;11412;50.802;4.350;2022-07-06T04:53:12;6.63;;;3.20;;
22490;SDS011;11412;50.802;4.350;2022-07-06T04:55:38;4.40;;;2.90;;
22490;SDS011;11412;50.802;4.350;2022-07-06T04:58:03;3.75;;;3.20;;
22490;SDS011;11412;50.802;4.350;2022-07-06T05:00:29;4.00;;;3.33;;
22490;SDS011;11412;50.802;4.350;2022-07-06T05:02:54;4.18;;;2.97;;
22490;SDS011;11412;50.802;4.350;2022-07-06T05:05:20;3.22;;;2.75;;
22490;SDS011;11412;50.802;4.350;2022-07-06T05:07:46;2.70;;;2.42;;
22490;SDS011;11412;50.802;4.350;2022-07-06T05:10:12;4.57;;;2.92;;
22490;SDS011;11412;50.802;4.350;2022-07-06T05:12:37;6.00;;;3.17;;
22490;SDS011;11412;50.802;4.350;2022-07-06T05:15:03;4.25;;;2.85;;
22490;SDS011;11412;50.802;4.350;2022-07-06T05:17:30;4.40;;;3.00;;
22490;SDS011;11412;50.802;4.350;2022-07-06T05:19:55;4.50;;;3.20;;
22490;SDS011;11412;50.802;4.350;2022-07-06T05:22:21;8.38;;;3.47;;
22490;SDS011;11412;50.802;4.350;2022-07-06T05:24:47;6.30;;;2.95;;
22490;SDS011;11412;50.802;4.350;2022-07-06T05:27:13;5.38;;;3.10;;
22490;SDS011;11412;50.802;4.350;2022-07-06T05:29:38;3.08;;;2.78;;
22490;SDS011;11412;50.802;4.350;2022-07-06T05:32:04;6.60;;;2.92;;
22490;SDS011;11412;50.802;4.350;2022-07-06T05:34:30;6.50;;;3.20;;
22490;SDS011;11412;50.802;4.350;2022-07-06T05:36:56;4.60;;;2.65;;
22490;SDS011;11412;50.802;4.350;2022-07-06T05:39:22;2.95;;;2.75;;
22490;SDS011;11412;50.802;4.350;2022-07-06T05:41:48;4.32;;;3.13;;
22490;SDS011;11412;50.802;4.350;2022-07-06T05:44:14;5.85;;;3.15;;
22490;SDS011;11412;50.802;4.350;2022-07-06T05:46:40;4.93;;;3.22;;
22490;SDS011;11412;50.802;4.350;2022-07-06T05:49:06;4.80;;;3.33;;
22490;SDS011;11412;50.802;4.350;2022-07-06T05:51:50;8.30;;;4.40;;
22490;SDS011;11412;50.802;4.350;2022-07-06T05:54:16;6.55;;;4.22;;
22490;SDS011;11412;50.802;4.350;2022-07-06T05:56:41;4.40;;;3.97;;
22490;SDS011;11412;50.802;4.350;2022-07-06T05:59:07;7.38;;;3.88;;
22490;SDS011;11412;50.802;4.350;2022-07-06T06:01:33;8.05;;;3.97;;
22490;SDS011;11412;50.802;4.350;2022-07-06T06:03:58;7.03;;;4.03;;
22490;SDS011;11412;50.802;4.350;2022-07-06T06:06:25;9.05;;;4.25;;
22490;SDS011;11412;50.802;4.350;2022-07-06T06:08:51;5.80;;;3.88;;
22490;SDS011;11412;50.802;4.350;2022-07-06T06:11:17;8.65;;;4.15;;
22490;SDS011;11412;50.802;4.350;2022-07-06T06:13:43;6.93;;;3.72;;
22490;SDS011;11412;50.802;4.350;2022-07-06T06:16:08;8.48;;;4.13;;
22490;SDS011;11412;50.802;4.350;2022-07-06T06:18:34;7.03;;;4.68;;
22490;SDS011;11412;50.802;4.350;2022-07-06T06:21:00;10.82;;;4.53;;
22490;SDS011;11412;50.802;4.350;2022-07-06T06:23:26;4.65;;;3.88;;
22490;SDS011;11412;50.802;4.350;2022-07-06T06:25:51;9.90;;;4.22;;
22490;SDS011;11412;50.802;4.350;2022-07-06T06:28:17;5.20;;;3.80;;
22490;SDS011;11412;50.802;4.350;2022-07-06T06:30:43;12.93;;;4.20;;
22490;SDS011;11412;50.802;4.350;2022-07-06T06:35:45;9.27;;;3.88;;
22490;SDS011;11412;50.802;4.350;2022-07-06T06:38:13;6.75;;;3.80;;
22490;SDS011;11412;50.802;4.350;2022-07-06T06:40:39;4.85;;;3.25;;
22490;SDS011;11412;50.802;4.350;2022-07-06T06:43:05;4.90;;;2.65;;
22490;SDS011;11412;50.802;4.350;2022-07-06T06:45:31;7.07;;;2.45;;
22490;SDS011;11412;50.802;4.350;2022-07-06T06:47:57;5.75;;;2.65;;
22490;SDS011;11412;50.802;4.350;2022-07-06T06:50:22;8.68;;;2.67;;
22490;SDS011;11412;50.802;4.350;2022-07-06T06:52:49;10.57;;;3.63;;
22490;SDS011;11412;50.802;4.350;2022-07-06T06:55:15;12.88;;;4.72;;
22490;SDS011;11412;50.802;4.350;2022-07-06T06:57:41;17.25;;;4.90;;
22490;SDS011;11412;50.802;4.350;2022-07-06T07:00:08;15.32;;;4.13;;
22490;SDS011;11412;50.802;4.350;2022-07-06T07:02:34;9.55;;;4.22;;
22490;SDS011;11412;50.802;4.350;2022-07-06T07:05:00;12.88;;;3.60;;
22490;SDS011;11412;50.802;4.350;2022-07-06T07:07:26;11.35;;;3.80;;
22490;SDS011;11412;50.802;4.350;2022-07-06T07:09:52;9.60;;;3.92;;
22490;SDS011;11412;50.802;4.350;2022-07-06T07:12:18;16.92;;;5.50;;
22490;SDS011;11412;50.802;4.350;2022-07-06T07:14:44;11.57;;;4.47;;
22490;SDS011;11412;50.802;4.350;2022-07-06T07:17:10;14.82;;;5.40;;
22490;SDS011;11412;50.802;4.350;2022-07-06T07:19:36;13.77;;;4.93;;
22490;SDS011;11412;50.802;4.350;2022-07-06T07:22:02;12.88;;;3.50;;
22490;SDS011;11412;50.802;4.350;2022-07-06T07:24:28;14.35;;;4.97;;
22490;SDS011;11412;50.802;4.350;2022-07-06T07:26:54;9.75;;;3.58;;
22490;SDS011;11412;50.802;4.350;2022-07-06T07:29:19;12.13;;;4.18;;
22490;SDS011;11412;50.802;4.350;2022-07-06T07:31:45;14.60;;;3.67;;
22490;SDS011;11412;50.802;4.350;2022-07-06T07:34:10;10.13;;;3.58;;
22490;SDS011;11412;50.802;4.350;2022-07-06T07:36:36;10.65;;;3.53;;
22490;SDS011;11412;50.802;4.350;2022-07-06T07:39:02;9.27;;;3.15;;
22490;SDS011;11412;50.802;4.350;2022-07-06T07:41:28;10.23;;;3.97;;
22490;SDS011;11412;50.802;4.350;2022-07-06T07:43:54;13.90;;;3.65;;
22490;SDS011;11412;50.802;4.350;2022-07-06T07:46:20;9.52;;;3.83;;
22490;SDS011;11412;50.802;4.350;2022-07-06T07:48:45;7.35;;;3.40;;
22490;SDS011;11412;50.802;4.350;2022-07-06T07:51:11;6.75;;;3.50;;
22490;SDS011;11412;50.802;4.350;2022-07-06T07:53:37;6.07;;;2.80;;
22490;SDS011;11412;50.802;4.350;2022-07-06T07:56:02;7.57;;;4.35;;
22490;SDS011;11412;50.802;4.350;2022-07-06T07:58:28;17.20;;;5.00;;
22490;SDS011;11412;50.802;4.350;2022-07-06T08:00:54;10.70;;;4.43;;
22490;SDS011;11412;50.802;4.350;2022-07-06T08:03:20;10.63;;;2.35;;
22490;SDS011;11412;50.802;4.350;2022-07-06T08:05:46;9.60;;;2.50;;
22490;SDS011;11412;50.802;4.350;2022-07-06T08:08:13;16.10;;;3.53;;
22490;SDS011;11412;50.802;4.350;2022-07-06T08:10:39;7.47;;;2.63;;
22490;SDS011;11412;50.802;4.350;2022-07-06T08:13:05;11.32;;;2.70;;
22490;SDS011;11412;50.802;4.350;2022-07-06T08:15:32;7.82;;;2.03;;
22490;SDS011;11412;50.802;4.350;2022-07-06T08:17:58;7.45;;;2.30;;
22490;SDS011;11412;50.802;4.350;2022-07-06T08:20:24;6.10;;;2.60;;
22490;SDS011;11412;50.802;4.350;2022-07-06T08:22:50;5.18;;;1.90;;
22490;SDS011;11412;50.802;4.350;2022-07-06T08:25:16;4.30;;;2.05;;
22490;SDS011;11412;50.802;4.350;2022-07-06T08:27:42;6.30;;;2.80;;
22490;SDS011;11412;50.802;4.350;2022-07-06T08:30:09;6.32;;;2.53;;
22490;SDS011;11412;50.802;4.350;2022-07-06T08:32:41;6.43;;;2.80;;
22490;SDS011;11412;50.802;4.350;2022-07-06T08:35:08;8.93;;;2.58;;
22490;SDS011;11412;50.802;4.350;2022-07-06T08:37:35;8.55;;;2.45;;
22490;SDS011;11412;50.802;4.350;2022-07-06T08:40:01;6.00;;;2.10;;
22490;SDS011;11412;50.802;4.350;2022-07-06T08:42:31;7.13;;;2.67;;
22490;SDS011;11412;50.802;4.350;2022-07-06T08:44:58;5.00;;;2.72;;
22490;SDS011;11412;50.802;4.350;2022-07-06T08:47:28;5.55;;;2.80;;
22490;SDS011;11412;50.802;4.350;2022-07-06T08:49:55;4.93;;;2.50;;
22490;SDS011;11412;50.802;4.350;2022-07-06T08:52:24;7.43;;;2.88;;
22490;SDS011;11412;50.802;4.350;2022-07-06T08:54:50;5.20;;;2.50;;
22490;SDS011;11412;50.802;4.350;2022-07-06T08:57:16;7.38;;;2.90;;
22490;SDS011;11412;50.802;4.350;2022-07-06T08:59:43;3.65;;;2.15;;
22490;SDS011;11412;50.802;4.350;2022-07-06T09:02:09;4.47;;;2.45;;
22490;SDS011;11412;50.802;4.350;2022-07-06T09:04:36;5.05;;;2.67;;
22490;SDS011;11412;50.802;4.350;2022-07-06T09:07:02;4.18;;;2.50;;
22490;SDS011;11412;50.802;4.350;2022-07-06T09:09:29;3.90;;;2.60;;
22490;SDS011;11412;50.802;4.350;2022-07-06T09:11:56;9.13;;;2.25;;
22490;SDS011;11412;50.802;4.350;2022-07-06T09:14:22;5.15;;;3.03;;
22490;SDS011;11412;50.802;4.350;2022-07-06T09:16:51;5.97;;;3.10;;
22490;SDS011;11412;50.802;4.350;2022-07-06T09:19:25;7.85;;;2.67;;
22490;SDS011;11412;50.802;4.350;2022-07-06T09:21:51;4.65;;;1.95;;
22490;SDS011;11412;50.802;4.350;2022-07-06T09:24:17;8.50;;;2.90;;
22490;SDS011;11412;50.802;4.350;2022-07-06T09:26:44;3.80;;;2.28;;
22490;SDS011;11412;50.802;4.350;2022-07-06T09:29:12;6.65;;;2.08;;
22490;SDS011;11412;50.802;4.350;2022-07-06T09:31:39;7.10;;;2.50;;
22490;SDS011;11412;50.802;4.350;2022-07-06T09:34:06;5.70;;;2.33;;
22490;SDS011;11412;50.802;4.350;2022-07-06T09:36:42;4.53;;;2.63;;
22490;SDS011;11412;50.802;4.350;2022-07-06T09:41:48;4.45;;;2.28;;
22490;SDS011;11412;50.802;4.350;2022-07-06T09:44:22;8.98;;;2.40;;
22490;SDS011;11412;50.802;4.350;2022-07-06T09:46:55;5.90;;;2.22;;
22490;SDS011;11412;50.802;4.350;2022-07-06T09:49:23;7.72;;;2.33;;
22490;SDS011;11412;50.802;4.350;2022-07-06T09:51:53;6.97;;;2.30;;
22490;SDS011;11412;50.802;4.350;2022-07-06T09:54:20;5.30;;;2.00;;
22490;SDS011;11412;50.802;4.350;2022-07-06T09:56:47;6.20;;;2.20;;
22490;SDS011;11412;50.802;4.350;2022-07-06T09:59:16;8.13;;;2.40;;
22490;SDS011;11412;50.802;4.350;2022-07-06T10:01:43;5.50;;;2.40;;
22490;SDS011;11412;50.802;4.350;2022-07-06T10:04:11;10.23;;;2.70;;
22490;SDS011;11412;50.802;4.350;2022-07-06T10:06:39;9.90;;;2.80;;
22490;SDS011;11412;50.802;4.350;2022-07-06T10:09:06;4.35;;;2.08;;
22490;SDS011;11412;50.802;4.350;2022-07-06T10:11:50;7.45;;;2.63;;
22490;SDS011;11412;50.802;4.350;2022-07-06T10:14:18;5.63;;;2.77;;
22490;SDS011;11412;50.802;4.350;2022-07-06T10:16:46;6.55;;;2.35;;
22490;SDS011;11412;50.802;4.350;2022-07-06T10:19:13;3.45;;;2.10;;
22490;SDS011;11412;50.802;4.350;2022-07-06T10:21:42;2.88;;;1.98;;
22490;SDS011;11412;50.802;4.350;2022-07-06T10:24:09;6.07;;;2.22;;
22490;SDS011;11412;50.802;4.350;2022-07-06T10:26:36;2.53;;;2.05;;
22490;SDS011;11412;50.802;4.350;2022-07-06T10:29:03;8.23;;;3.03;;
22490;SDS011;11412;50.802;4.350;2022-07-06T10:31:30;5.18;;;2.38;;
22490;SDS011;11412;50.802;4.350;2022-07-06T10:33:57;7.50;;;2.60;;
22490;SDS011;11412;50.802;4.350;2022-07-06T10:36:26;6.03;;;2.20;;
22490;SDS011;11412;50.802;4.350;2022-07-06T10:38:53;7.30;;;2.25;;
22490;SDS011;11412;50.802;4.350;2022-07-06T10:41:29;6.90;;;2.60;;
22490;SDS011;11412;50.802;4.350;2022-07-06T10:43:57;5.68;;;2.03;;
22490;SDS011;11412;50.802;4.350;2022-07-06T10:46:23;10.40;;;2.92;;
22490;SDS011;11412;50.802;4.350;2022-07-06T10:48:53;7.45;;;2.60;;
22490;SDS011;11412;50.802;4.350;2022-07-06T10:51:26;4.90;;;2.10;;
22490;SDS011;11412;50.802;4.350;2022-07-06T10:53:56;3.50;;;2.10;;
22490;SDS011;11412;50.802;4.350;2022-07-06T10:56:40;3.70;;;2.10;;
22490;SDS011;11412;50.802;4.350;2022-07-06T10:59:11;3.45;;;2.22;;
22490;SDS011;11412;50.802;4.350;2022-07-06T11:01:38;3.83;;;1.50;;
22490;SDS011;11412;50.802;4.350;2022-07-06T11:04:07;4.68;;;1.50;;
22490;SDS011;11412;50.802;4.350;2022-07-06T11:06:35;6.00;;;2.40;;
22490;SDS011;11412;50.802;4.350;2022-07-06T11:09:10;2.72;;;1.48;;
22490;SDS011;11412;50.802;4.350;2022-07-06T11:22:04;2.97;;;1.50;;
22490;SDS011;11412;50.802;4.350;2022-07-06T11:24:32;5.20;;;1.50;;
22490;SDS011;11412;50.802;4.350;2022-07-06T11:27:00;2.10;;;1.25;;
22490;SDS011;11412;50.802;4.350;2022-07-06T11:29:27;3.58;;;1.40;;
22490;SDS011;11412;50.802;4.350;2022-07-06T11:31:54;3.55;;;1.60;;
22490;SDS011;11412;50.802;4.350;2022-07-06T11:34:22;3.30;;;1.60;;
22490;SDS011;11412;50.802;4.350;2022-07-06T11:36:56;3.00;;;1.40;;
22490;SDS011;11412;50.802;4.350;2022-07-06T11:39:30;5.47;;;1.60;;
22490;SDS011;11412;50.802;4.350;2022-07-06T11:41:57;4.38;;;1.45;;
22490;SDS011;11412;50.802;4.350;2022-07-06T11:44:24;2.53;;;1.60;;
22490;SDS011;11412;50.802;4.350;2022-07-06T11:46:50;2.45;;;1.40;;
22490;SDS011;11412;50.802;4.350;2022-07-06T11:49:16;3.65;;;1.77;;
22490;SDS011;11412;50.802;4.350;2022-07-06T11:51:42;4.88;;;1.65;;
22490;SDS011;11412;50.802;4.350;2022-07-06T11:54:11;2.42;;;1.58;;
22490;SDS011;11412;50.802;4.350;2022-07-06T11:56:45;3.15;;;1.50;;
22490;SDS011;11412;50.802;4.350;2022-07-06T11:59:22;2.40;;;1.45;;
22490;SDS011;11412;50.802;4.350;2022-07-06T12:04:35;3.17;;;1.60;;
22490;SDS011;11412;50.802;4.350;2022-07-06T12:07:03;3.63;;;1.23;;
22490;SDS011;11412;50.802;4.350;2022-07-06T12:09:31;2.95;;;1.30;;
22490;SDS011;11412;50.802;4.350;2022-07-06T12:11:57;5.63;;;1.60;;
22490;SDS011;11412;50.802;4.350;2022-07-06T12:14:23;1.75;;;1.25;;
22490;SDS011;11412;50.802;4.350;2022-07-06T12:16:49;1.60;;;1.50;;
22490;SDS011;11412;50.802;4.350;2022-07-06T12:19:15;4.30;;;1.80;;
22490;SDS011;11412;50.802;4.350;2022-07-06T12:21:42;5.93;;;1.73;;
22490;SDS011;11412;50.802;4.350;2022-07-06T12:24:25;6.45;;;1.73;;
22490;SDS011;11412;50.802;4.350;2022-07-06T12:26:53;5.30;;;1.63;;
22490;SDS011;11412;50.802;4.350;2022-07-06T12:29:20;1.55;;;1.45;;
22490;SDS011;11412;50.802;4.350;2022-07-06T12:34:17;2.22;;;1.17;;
22490;SDS011;11412;50.802;4.350;2022-07-06T12:37:28;6.03;;;1.20;;
22490;SDS011;11412;50.802;4.350;2022-07-06T12:39:43;3.00;;;1.45;;
22490;SDS011;11412;50.802;4.350;2022-07-06T12:42:10;4.30;;;1.50;;
22490;SDS011;11412;50.802;4.350;2022-07-06T12:44:43;2.42;;;1.50;;
22490;SDS011;11412;50.802;4.350;2022-07-06T12:47:11;3.90;;;1.60;;
22490;SDS011;11412;50.802;4.350;2022-07-06T12:49:37;5.22;;;1.58;;
22490;SDS011;11412;50.802;4.350;2022-07-06T12:57:08;2.13;;;1.65;;
22490;SDS011;11412;50.802;4.350;2022-07-06T12:59:40;3.50;;;1.67;;
22490;SDS011;11412;50.802;4.350;2022-07-06T13:02:06;2.95;;;1.50;;
22490;SDS011;11412;50.802;4.350;2022-07-06T13:04:35;2.15;;;1.38;;
22490;SDS011;11412;50.802;4.350;2022-07-06T13:07:01;7.80;;;2.10;;
22490;SDS011;11412;50.802;4.350;2022-07-06T13:09:28;7.07;;;1.77;;
22490;SDS011;11412;50.802;4.350;2022-07-06T13:11:55;4.05;;;1.70;;
22490;SDS011;11412;50.802;4.350;2022-07-06T13:14:21;5.30;;;2.00;;
22490;SDS011;11412;50.802;4.350;2022-07-06T13:16:47;2.53;;;1.65;;
22490;SDS011;11412;50.802;4.350;2022-07-06T13:19:13;5.43;;;1.50;;
22490;SDS011;11412;50.802;4.350;2022-07-06T13:21:39;2.53;;;1.50;;
22490;SDS011;11412;50.802;4.350;2022-07-06T13:24:06;2.58;;;1.70;;
22490;SDS011;11412;50.802;4.350;2022-07-06T13:26:32;2.60;;;1.40;;
22490;SDS011;11412;50.802;4.350;2022-07-06T13:29:02;4.05;;;1.80;;
22490;SDS011;11412;50.802;4.350;2022-07-06T13:31:28;3.28;;;1.58;;
22490;SDS011;11412;50.802;4.350;2022-07-06T13:33:54;2.53;;;1.58;;
22490;SDS011;11412;50.802;4.350;2022-07-06T13:36:20;3.42;;;1.50;;
22490;SDS011;11412;50.802;4.350;2022-07-06T13:38:46;4.30;;;1.70;;
22490;SDS011;11412;50.802;4.350;2022-07-06T13:41:12;1.75;;;1.40;;
22490;SDS011;11412;50.802;4.350;2022-07-06T13:43:37;4.43;;;1.50;;
22490;SDS011;11412;50.802;4.350;2022-07-06T13:46:04;2.45;;;1.48;;
22490;SDS011;11412;50.802;4.350;2022-07-06T13:48:30;4.95;;;1.60;;
22490;SDS011;11412;50.802;4.350;2022-07-06T13:50:56;3.15;;;1.50;;
22490;SDS011;11412;50.802;4.350;2022-07-06T13:53:22;2.22;;;1.55;;
22490;SDS011;11412;50.802;4.350;2022-07-06T13:55:48;4.45;;;1.40;;
22490;SDS011;11412;50.802;4.350;2022-07-06T13:58:13;2.10;;;1.30;;
22490;SDS011;11412;50.802;4.350;2022-07-06T14:00:39;4.45;;;2.17;;
22490;SDS011;11412;50.802;4.350;2022-07-06T14:03:05;12.20;;;1.60;;
22490;SDS011;11412;50.802;4.350;2022-07-06T14:05:31;2.65;;;1.30;;
22490;SDS011;11412;50.802;4.350;2022-07-06T14:07:56;5.20;;;1.60;;
22490;SDS011;11412;50.802;4.350;2022-07-06T14:10:22;6.78;;;1.30;;
22490;SDS011;11412;50.802;4.350;2022-07-06T14:12:48;2.53;;;1.42;;
22490;SDS011;11412;50.802;4.350;2022-07-06T14:15:14;1.98;;;1.40;;
22490;SDS011;11412;50.802;4.350;2022-07-06T14:17:39;3.42;;;1.30;;
22490;SDS011;11412;50.802;4.350;2022-07-06T14:20:05;7.13;;;1.50;;
22490;SDS011;11412;50.802;4.350;2022-07-06T14:22:31;6.57;;;1.40;;
22490;SDS011;11412;50.802;4.350;2022-07-06T14:24:57;1.90;;;1.40;;
22490;SDS011;11412;50.802;4.350;2022-07-06T14:27:23;4.07;;;1.40;;
22490;SDS011;11412;50.802;4.350;2022-07-06T14:29:49;1.42;;;1.20;;
22490;SDS011;11412;50.802;4.350;2022-07-06T14:32:15;4.65;;;1.52;;
22490;SDS011;11412;50.802;4.350;2022-07-06T14:34:40;1.33;;;1.10;;
22490;SDS011;11412;50.802;4.350;2022-07-06T14:37:07;2.63;;;1.25;;
22490;SDS011;11412;50.802;4.350;2022-07-06T14:39:33;1.98;;;1.35;;
22490;SDS011;11412;50.802;4.350;2022-07-06T14:41:59;4.10;;;1.20;;
22490;SDS011;11412;50.802;4.350;2022-07-06T14:44:24;1.55;;;1.20;;
22490;SDS011;11412;50.802;4.350;2022-07-06T14:46:51;5.05;;;1.67;;
22490;SDS011;11412;50.802;4.350;2022-07-06T14:49:17;7.00;;;1.60;;
22490;SDS011;11412;50.802;4.350;2022-07-06T14:51:42;1.15;;;1.05;;
22490;SDS011;11412;50.802;4.350;2022-07-06T14:54:08;2.80;;;1.50;;
22490;SDS011;11412;50.802;4.350;2022-07-06T14:56:34;3.10;;;1.30;;
22490;SDS011;11412;50.802;4.350;2022-07-06T14:59:00;3.08;;;1.23;;
22490;SDS011;11412;50.802;4.350;2022-07-06T15:01:26;1.88;;;1.30;;
22490;SDS011;11412;50.802;4.350;2022-07-06T15:03:52;6.20;;;1.30;;
22490;SDS011;11412;50.802;4.350;2022-07-06T15:06:18;2.17;;;1.30;;
22490;SDS011;11412;50.802;4.350;2022-07-06T15:08:43;3.63;;;1.20;;